sensor_id;sensor_type;location;lat;lon;timestamp;P1;durP1;ratioP1;P2;durP2;ratioP2
20671;SDS011;10495;50.922;4.760;2022-07-29T00:01:16;2.92;;;1.40;;
20671;SDS011;10495;50.922;4.760;2022-07-29T00:03:42;3.08;;;1.90;;
20671;SDS011;10495;50.922;4.760;2022-07-29T00:06:07;2.20;;;1.70;;
20671;SDS011;10495;50.922;4.760;2022-07-29T00:08:33;2.85;;;1.70;;
20671;SDS011;10495;50.922;4.760;2022-07-29T00:10:59;1.70;;;1.60;;
20671;SDS011;10495;50.922;4.760;2022-07-29T00:13:24;2.00;;;1.70;;
20671;SDS011;10495;50.922;4.760;2022-07-29T00:15:50;2.63;;;1.85;;
20671;SDS011;10495;50.922;4.760;2022-07-29T00:18:15;1.92;;;1.77;;
20671;SDS011;10495;50.922;4.760;2022-07-29T00:20:41;2.55;;;1.70;;
20671;SDS011;10495;50.922;4.760;2022-07-29T00:23:07;2.03;;;1.80;;
20671;SDS011;10495;50.922;4.760;2022-07-29T00:25:32;3.63;;;1.83;;
20671;SDS011;10495;50.922;4.760;2022-07-29T00:27:58;1.70;;;1.60;;
20671;SDS011;10495;50.922;4.760;2022-07-29T00:30:23;1.60;;;1.50;;
20671;SDS011;10495;50.922;4.760;2022-07-29T00:32:49;2.60;;;1.97;;
20671;SDS011;10495;50.922;4.760;2022-07-29T00:35:15;2.90;;;1.73;;
20671;SDS011;10495;50.922;4.760;2022-07-29T00:37:59;3.53;;;2.10;;
20671;SDS011;10495;50.922;4.760;2022-07-29T00:40:25;2.07;;;1.77;;
20671;SDS011;10495;50.922;4.760;2022-07-29T00:42:51;2.43;;;1.63;;
20671;SDS011;10495;50.922;4.760;2022-07-29T00:45:17;2.17;;;1.80;;
20671;SDS011;10495;50.922;4.760;2022-07-29T00:47:44;1.80;;;1.70;;
20671;SDS011;10495;50.922;4.760;2022-07-29T00:50:10;2.13;;;1.63;;
20671;SDS011;10495;50.922;4.760;2022-07-29T00:52:37;3.80;;;2.03;;
20671;SDS011;10495;50.922;4.760;2022-07-29T00:55:05;3.47;;;1.93;;
20671;SDS011;10495;50.922;4.760;2022-07-29T00:57:32;4.00;;;1.90;;
20671;SDS011;10495;50.922;4.760;2022-07-29T00:59:58;1.97;;;1.73;;
20671;SDS011;10495;50.922;4.760;2022-07-29T01:02:24;2.95;;;1.88;;
20671;SDS011;10495;50.922;4.760;2022-07-29T01:04:49;2.83;;;1.70;;
20671;SDS011;10495;50.922;4.760;2022-07-29T01:07:16;1.92;;;1.70;;
20671;SDS011;10495;50.922;4.760;2022-07-29T01:09:43;2.70;;;1.70;;
20671;SDS011;10495;50.922;4.760;2022-07-29T01:12:10;2.07;;;1.80;;
20671;SDS011;10495;50.922;4.760;2022-07-29T01:14:37;1.90;;;1.57;;
20671;SDS011;10495;50.922;4.760;2022-07-29T01:32:10;2.33;;;2.10;;
20671;SDS011;10495;50.922;4.760;2022-07-29T01:34:45;2.57;;;2.30;;
20671;SDS011;10495;50.922;4.760;2022-07-29T01:37:19;2.60;;;1.63;;
20671;SDS011;10495;50.922;4.760;2022-07-29T01:39:49;3.67;;;1.80;;
20671;SDS011;10495;50.922;4.760;2022-07-29T01:42:27;4.10;;;1.92;;
20671;SDS011;10495;50.922;4.760;2022-07-29T01:45:25;4.13;;;1.70;;
20671;SDS011;10495;50.922;4.760;2022-07-29T01:48:03;2.40;;;1.80;;
20671;SDS011;10495;50.922;4.760;2022-07-29T01:50:40;2.13;;;1.80;;
20671;SDS011;10495;50.922;4.760;2022-07-29T01:53:15;3.23;;;2.07;;
20671;SDS011;10495;50.922;4.760;2022-07-29T01:55:48;4.13;;;2.10;;
20671;SDS011;10495;50.922;4.760;2022-07-29T01:58:15;2.37;;;2.10;;
20671;SDS011;10495;50.922;4.760;2022-07-29T02:00:44;3.13;;;2.07;;
20671;SDS011;10495;50.922;4.760;2022-07-29T02:03:11;3.13;;;1.60;;
20671;SDS011;10495;50.922;4.760;2022-07-29T02:05:39;2.40;;;2.20;;
20671;SDS011;10495;50.922;4.760;2022-07-29T02:08:07;1.70;;;1.60;;
20671;SDS011;10495;50.922;4.760;2022-07-29T02:10:34;2.07;;;1.80;;
20671;SDS011;10495;50.922;4.760;2022-07-29T02:13:02;3.13;;;1.70;;
20671;SDS011;10495;50.922;4.760;2022-07-29T02:15:29;2.43;;;1.97;;
20671;SDS011;10495;50.922;4.760;2022-07-29T02:18:07;3.03;;;1.90;;
20671;SDS011;10495;50.922;4.760;2022-07-29T02:20:36;2.77;;;1.90;;
20671;SDS011;10495;50.922;4.760;2022-07-29T02:23:04;3.67;;;2.30;;
20671;SDS011;10495;50.922;4.760;2022-07-29T02:25:31;2.63;;;2.00;;
20671;SDS011;10495;50.922;4.760;2022-07-29T02:27:57;2.70;;;2.07;;
20671;SDS011;10495;50.922;4.760;2022-07-29T02:30:25;3.10;;;2.00;;
20671;SDS011;10495;50.922;4.760;2022-07-29T02:32:53;4.40;;;1.70;;
20671;SDS011;10495;50.922;4.760;2022-07-29T02:35:21;2.17;;;1.97;;
20671;SDS011;10495;50.922;4.760;2022-07-29T02:37:47;4.00;;;2.17;;
20671;SDS011;10495;50.922;4.760;2022-07-29T02:40:34;3.20;;;1.83;;
20671;SDS011;10495;50.922;4.760;2022-07-29T02:43:03;2.90;;;1.93;;
20671;SDS011;10495;50.922;4.760;2022-07-29T02:45:32;2.27;;;1.80;;
20671;SDS011;10495;50.922;4.760;2022-07-29T02:47:58;1.80;;;1.70;;
20671;SDS011;10495;50.922;4.760;2022-07-29T02:50:32;2.10;;;1.90;;
20671;SDS011;10495;50.922;4.760;2022-07-29T02:53:11;1.90;;;1.73;;
20671;SDS011;10495;50.922;4.760;2022-07-29T02:55:43;2.17;;;1.70;;
20671;SDS011;10495;50.922;4.760;2022-07-29T03:00:58;4.03;;;2.13;;
20671;SDS011;10495;50.922;4.760;2022-07-29T03:03:28;2.53;;;2.00;;
20671;SDS011;10495;50.922;4.760;2022-07-29T03:05:57;3.30;;;1.83;;
20671;SDS011;10495;50.922;4.760;2022-07-29T03:08:24;3.27;;;1.97;;
20671;SDS011;10495;50.922;4.760;2022-07-29T03:10:52;3.93;;;2.40;;
20671;SDS011;10495;50.922;4.760;2022-07-29T03:13:18;3.33;;;2.23;;
20671;SDS011;10495;50.922;4.760;2022-07-29T03:15:45;3.20;;;2.00;;
20671;SDS011;10495;50.922;4.760;2022-07-29T03:18:11;2.40;;;1.90;;
20671;SDS011;10495;50.922;4.760;2022-07-29T03:20:38;4.57;;;2.10;;
20671;SDS011;10495;50.922;4.760;2022-07-29T03:23:04;3.07;;;2.20;;
20671;SDS011;10495;50.922;4.760;2022-07-29T03:25:30;2.83;;;2.20;;
20671;SDS011;10495;50.922;4.760;2022-07-29T03:27:56;2.77;;;1.90;;
20671;SDS011;10495;50.922;4.760;2022-07-29T03:30:22;2.60;;;1.90;;
20671;SDS011;10495;50.922;4.760;2022-07-29T03:32:48;2.53;;;2.20;;
20671;SDS011;10495;50.922;4.760;2022-07-29T03:35:15;4.33;;;2.17;;
20671;SDS011;10495;50.922;4.760;2022-07-29T03:37:44;2.90;;;1.90;;
20671;SDS011;10495;50.922;4.760;2022-07-29T03:40:10;3.60;;;2.00;;
20671;SDS011;10495;50.922;4.760;2022-07-29T03:42:40;1.93;;;1.73;;
20671;SDS011;10495;50.922;4.760;2022-07-29T03:45:08;2.97;;;2.53;;
20671;SDS011;10495;50.922;4.760;2022-07-29T03:47:39;3.33;;;2.00;;
20671;SDS011;10495;50.922;4.760;2022-07-29T03:50:11;2.40;;;2.00;;
20671;SDS011;10495;50.922;4.760;2022-07-29T03:52:39;2.13;;;1.93;;
20671;SDS011;10495;50.922;4.760;2022-07-29T03:55:05;2.70;;;1.80;;
20671;SDS011;10495;50.922;4.760;2022-07-29T03:57:32;2.23;;;1.80;;
20671;SDS011;10495;50.922;4.760;2022-07-29T03:59:59;2.30;;;2.10;;
20671;SDS011;10495;50.922;4.760;2022-07-29T04:02:28;3.10;;;2.07;;
20671;SDS011;10495;50.922;4.760;2022-07-29T04:04:54;2.30;;;2.10;;
20671;SDS011;10495;50.922;4.760;2022-07-29T04:07:20;2.77;;;2.03;;
20671;SDS011;10495;50.922;4.760;2022-07-29T04:09:45;2.97;;;2.27;;
20671;SDS011;10495;50.922;4.760;2022-07-29T04:12:11;2.63;;;2.30;;
20671;SDS011;10495;50.922;4.760;2022-07-29T04:14:37;2.00;;;1.80;;
20671;SDS011;10495;50.922;4.760;2022-07-29T04:17:03;2.10;;;1.90;;
20671;SDS011;10495;50.922;4.760;2022-07-29T04:19:29;3.10;;;2.00;;
20671;SDS011;10495;50.922;4.760;2022-07-29T04:21:56;2.70;;;2.17;;
20671;SDS011;10495;50.922;4.760;2022-07-29T04:24:23;2.43;;;2.00;;
20671;SDS011;10495;50.922;4.760;2022-07-29T04:26:48;2.27;;;1.93;;
20671;SDS011;10495;50.922;4.760;2022-07-29T04:29:14;2.00;;;1.70;;
20671;SDS011;10495;50.922;4.760;2022-07-29T04:31:40;2.50;;;2.00;;
20671;SDS011;10495;50.922;4.760;2022-07-29T04:34:06;3.10;;;2.03;;
20671;SDS011;10495;50.922;4.760;2022-07-29T04:36:32;2.50;;;2.20;;
20671;SDS011;10495;50.922;4.760;2022-07-29T04:38:58;2.43;;;2.13;;
20671;SDS011;10495;50.922;4.760;2022-07-29T04:41:24;2.37;;;2.00;;
20671;SDS011;10495;50.922;4.760;2022-07-29T04:43:49;3.47;;;2.27;;
20671;SDS011;10495;50.922;4.760;2022-07-29T04:46:15;3.17;;;2.10;;
20671;SDS011;10495;50.922;4.760;2022-07-29T04:48:41;2.97;;;2.10;;
20671;SDS011;10495;50.922;4.760;2022-07-29T04:51:06;4.37;;;2.10;;
20671;SDS011;10495;50.922;4.760;2022-07-29T04:53:32;4.23;;;2.27;;
20671;SDS011;10495;50.922;4.760;2022-07-29T04:55:58;2.57;;;2.27;;
20671;SDS011;10495;50.922;4.760;2022-07-29T04:58:23;2.50;;;2.27;;
20671;SDS011;10495;50.922;4.760;2022-07-29T05:00:49;4.80;;;2.40;;
20671;SDS011;10495;50.922;4.760;2022-07-29T05:03:15;5.20;;;2.10;;
20671;SDS011;10495;50.922;4.760;2022-07-29T05:05:41;2.00;;;1.80;;
20671;SDS011;10495;50.922;4.760;2022-07-29T05:08:07;2.13;;;1.93;;
20671;SDS011;10495;50.922;4.760;2022-07-29T05:10:33;1.97;;;1.80;;
20671;SDS011;10495;50.922;4.760;2022-07-29T05:13:02;2.80;;;2.30;;
20671;SDS011;10495;50.922;4.760;2022-07-29T05:15:33;6.43;;;2.70;;
20671;SDS011;10495;50.922;4.760;2022-07-29T05:17:59;2.30;;;2.03;;
20671;SDS011;10495;50.922;4.760;2022-07-29T05:20:25;2.37;;;2.13;;
20671;SDS011;10495;50.922;4.760;2022-07-29T05:22:54;3.03;;;2.53;;
20671;SDS011;10495;50.922;4.760;2022-07-29T05:25:20;4.83;;;2.97;;
20671;SDS011;10495;50.922;4.760;2022-07-29T05:27:46;5.13;;;2.90;;
20671;SDS011;10495;50.922;4.760;2022-07-29T05:30:12;5.33;;;2.80;;
20671;SDS011;10495;50.922;4.760;2022-07-29T05:32:38;5.83;;;2.90;;
20671;SDS011;10495;50.922;4.760;2022-07-29T05:35:03;3.20;;;2.90;;
20671;SDS011;10495;50.922;4.760;2022-07-29T05:37:29;5.77;;;3.33;;
20671;SDS011;10495;50.922;4.760;2022-07-29T05:39:55;5.23;;;3.07;;
20671;SDS011;10495;50.922;4.760;2022-07-29T05:42:21;4.37;;;3.20;;
20671;SDS011;10495;50.922;4.760;2022-07-29T05:44:47;3.23;;;2.93;;
20671;SDS011;10495;50.922;4.760;2022-07-29T05:47:12;4.32;;;2.58;;
20671;SDS011;10495;50.922;4.760;2022-07-29T05:49:38;3.63;;;3.17;;
20671;SDS011;10495;50.922;4.760;2022-07-29T05:52:04;4.33;;;3.30;;
20671;SDS011;10495;50.922;4.760;2022-07-29T05:54:30;2.72;;;2.42;;
20671;SDS011;10495;50.922;4.760;2022-07-29T05:56:55;4.38;;;3.95;;
20671;SDS011;10495;50.922;4.760;2022-07-29T05:59:21;4.57;;;3.30;;
20671;SDS011;10495;50.922;4.760;2022-07-29T06:01:47;7.05;;;3.30;;
20671;SDS011;10495;50.922;4.760;2022-07-29T06:04:12;4.75;;;3.42;;
20671;SDS011;10495;50.922;4.760;2022-07-29T06:06:38;6.13;;;3.33;;
20671;SDS011;10495;50.922;4.760;2022-07-29T06:09:03;4.65;;;3.17;;
20671;SDS011;10495;50.922;4.760;2022-07-29T06:11:29;6.15;;;3.42;;
20671;SDS011;10495;50.922;4.760;2022-07-29T06:13:55;4.22;;;2.90;;
20671;SDS011;10495;50.922;4.760;2022-07-29T06:16:20;3.40;;;2.85;;
20671;SDS011;10495;50.922;4.760;2022-07-29T06:18:46;4.90;;;3.35;;
20671;SDS011;10495;50.922;4.760;2022-07-29T06:21:12;3.67;;;3.25;;
20671;SDS011;10495;50.922;4.760;2022-07-29T06:23:37;5.93;;;3.30;;
20671;SDS011;10495;50.922;4.760;2022-07-29T06:26:04;4.88;;;2.95;;
20671;SDS011;10495;50.922;4.760;2022-07-29T06:28:30;4.50;;;2.75;;
20671;SDS011;10495;50.922;4.760;2022-07-29T06:30:57;6.80;;;3.03;;
20671;SDS011;10495;50.922;4.760;2022-07-29T06:33:22;7.18;;;2.78;;
20671;SDS011;10495;50.922;4.760;2022-07-29T06:35:48;3.08;;;2.78;;
20671;SDS011;10495;50.922;4.760;2022-07-29T06:38:14;3.63;;;2.80;;
20671;SDS011;10495;50.922;4.760;2022-07-29T06:40:41;5.03;;;2.65;;
20671;SDS011;10495;50.922;4.760;2022-07-29T06:43:26;4.53;;;3.45;;
20671;SDS011;10495;50.922;4.760;2022-07-29T06:45:54;4.47;;;3.55;;
20671;SDS011;10495;50.922;4.760;2022-07-29T06:48:19;6.28;;;2.97;;
20671;SDS011;10495;50.922;4.760;2022-07-29T06:50:45;14.63;;;4.25;;
20671;SDS011;10495;50.922;4.760;2022-07-29T06:53:10;9.02;;;3.47;;
20671;SDS011;10495;50.922;4.760;2022-07-29T06:55:36;3.72;;;2.95;;
20671;SDS011;10495;50.922;4.760;2022-07-29T06:58:02;5.75;;;3.70;;
20671;SDS011;10495;50.922;4.760;2022-07-29T07:00:27;4.30;;;2.90;;
20671;SDS011;10495;50.922;4.760;2022-07-29T07:02:54;4.95;;;2.80;;
20671;SDS011;10495;50.922;4.760;2022-07-29T07:05:19;4.50;;;2.95;;
20671;SDS011;10495;50.922;4.760;2022-07-29T07:07:45;3.22;;;2.92;;
20671;SDS011;10495;50.922;4.760;2022-07-29T07:10:11;5.13;;;3.22;;
20671;SDS011;10495;50.922;4.760;2022-07-29T07:12:36;5.25;;;3.20;;
20671;SDS011;10495;50.922;4.760;2022-07-29T07:15:02;4.63;;;2.42;;
20671;SDS011;10495;50.922;4.760;2022-07-29T07:17:28;4.10;;;3.03;;
20671;SDS011;10495;50.922;4.760;2022-07-29T07:19:53;9.32;;;3.08;;
20671;SDS011;10495;50.922;4.760;2022-07-29T07:22:19;3.33;;;2.92;;
20671;SDS011;10495;50.922;4.760;2022-07-29T07:24:45;4.75;;;3.40;;
20671;SDS011;10495;50.922;4.760;2022-07-29T07:27:10;3.42;;;3.08;;
20671;SDS011;10495;50.922;4.760;2022-07-29T07:29:36;4.45;;;2.72;;
20671;SDS011;10495;50.922;4.760;2022-07-29T07:32:02;5.90;;;3.22;;
20671;SDS011;10495;50.922;4.760;2022-07-29T07:34:27;5.30;;;3.20;;
20671;SDS011;10495;50.922;4.760;2022-07-29T07:36:54;4.00;;;2.75;;
20671;SDS011;10495;50.922;4.760;2022-07-29T07:39:20;3.63;;;2.90;;
20671;SDS011;10495;50.922;4.760;2022-07-29T07:41:46;5.35;;;3.38;;
20671;SDS011;10495;50.922;4.760;2022-07-29T07:44:11;5.07;;;2.85;;
20671;SDS011;10495;50.922;4.760;2022-07-29T07:46:37;3.40;;;3.10;;
20671;SDS011;10495;50.922;4.760;2022-07-29T07:49:02;5.93;;;3.28;;
20671;SDS011;10495;50.922;4.760;2022-07-29T07:51:28;6.05;;;2.80;;
20671;SDS011;10495;50.922;4.760;2022-07-29T07:53:54;7.50;;;3.25;;
20671;SDS011;10495;50.922;4.760;2022-07-29T07:56:19;5.78;;;3.13;;
20671;SDS011;10495;50.922;4.760;2022-07-29T07:58:45;5.30;;;3.33;;
20671;SDS011;10495;50.922;4.760;2022-07-29T08:01:10;2.80;;;2.53;;
20671;SDS011;10495;50.922;4.760;2022-07-29T08:03:36;5.63;;;3.40;;
20671;SDS011;10495;50.922;4.760;2022-07-29T08:06:04;4.38;;;3.05;;
20671;SDS011;10495;50.922;4.760;2022-07-29T08:08:29;3.13;;;2.60;;
20671;SDS011;10495;50.922;4.760;2022-07-29T08:10:55;5.53;;;3.22;;
20671;SDS011;10495;50.922;4.760;2022-07-29T08:13:22;4.63;;;2.80;;
20671;SDS011;10495;50.922;4.760;2022-07-29T08:15:50;5.80;;;2.80;;
20671;SDS011;10495;50.922;4.760;2022-07-29T08:18:29;3.35;;;2.50;;
20671;SDS011;10495;50.922;4.760;2022-07-29T08:20:56;5.78;;;3.33;;
20671;SDS011;10495;50.922;4.760;2022-07-29T08:23:22;4.88;;;3.20;;
20671;SDS011;10495;50.922;4.760;2022-07-29T08:25:48;4.25;;;2.55;;
20671;SDS011;10495;50.922;4.760;2022-07-29T08:28:14;2.53;;;2.33;;
20671;SDS011;10495;50.922;4.760;2022-07-29T08:30:40;6.03;;;2.25;;
20671;SDS011;10495;50.922;4.760;2022-07-29T08:33:05;4.00;;;2.60;;
20671;SDS011;10495;50.922;4.760;2022-07-29T08:35:31;5.47;;;2.90;;
20671;SDS011;10495;50.922;4.760;2022-07-29T08:37:57;8.75;;;3.33;;
20671;SDS011;10495;50.922;4.760;2022-07-29T08:40:23;2.97;;;2.50;;
20671;SDS011;10495;50.922;4.760;2022-07-29T08:42:49;2.83;;;2.42;;
20671;SDS011;10495;50.922;4.760;2022-07-29T08:45:15;9.05;;;3.45;;
20671;SDS011;10495;50.922;4.760;2022-07-29T08:47:42;4.57;;;2.70;;
20671;SDS011;10495;50.922;4.760;2022-07-29T08:50:10;5.03;;;2.78;;
20671;SDS011;10495;50.922;4.760;2022-07-29T08:52:37;3.08;;;2.58;;
20671;SDS011;10495;50.922;4.760;2022-07-29T08:55:05;3.85;;;2.25;;
20671;SDS011;10495;50.922;4.760;2022-07-29T08:57:32;5.40;;;2.50;;
20671;SDS011;10495;50.922;4.760;2022-07-29T09:00:08;5.05;;;2.50;;
20671;SDS011;10495;50.922;4.760;2022-07-29T09:02:36;5.55;;;2.35;;
20671;SDS011;10495;50.922;4.760;2022-07-29T09:05:05;4.57;;;3.03;;
20671;SDS011;10495;50.922;4.760;2022-07-29T09:07:31;3.40;;;2.22;;
20671;SDS011;10495;50.922;4.760;2022-07-29T09:09:57;3.38;;;2.13;;
20671;SDS011;10495;50.922;4.760;2022-07-29T09:12:24;5.22;;;2.25;;
20671;SDS011;10495;50.922;4.760;2022-07-29T09:14:50;2.67;;;1.70;;
20671;SDS011;10495;50.922;4.760;2022-07-29T09:17:16;5.35;;;2.53;;
20671;SDS011;10495;50.922;4.760;2022-07-29T09:19:43;3.10;;;2.33;;
20671;SDS011;10495;50.922;4.760;2022-07-29T09:22:08;5.03;;;2.58;;
20671;SDS011;10495;50.922;4.760;2022-07-29T09:24:38;2.58;;;1.98;;
20671;SDS011;10495;50.922;4.760;2022-07-29T09:29:35;4.35;;;2.60;;
20671;SDS011;10495;50.922;4.760;2022-07-29T09:32:02;4.70;;;1.98;;
20671;SDS011;10495;50.922;4.760;2022-07-29T09:34:32;5.20;;;2.88;;
20671;SDS011;10495;50.922;4.760;2022-07-29T09:36:58;4.82;;;2.28;;
20671;SDS011;10495;50.922;4.760;2022-07-29T09:39:34;4.07;;;1.95;;
20671;SDS011;10495;50.922;4.760;2022-07-29T09:42:10;5.85;;;2.47;;
20671;SDS011;10495;50.922;4.760;2022-07-29T09:44:40;4.18;;;1.50;;
20671;SDS011;10495;50.922;4.760;2022-07-29T09:47:07;3.30;;;1.77;;
20671;SDS011;10495;50.922;4.760;2022-07-29T09:49:49;3.13;;;2.00;;
20671;SDS011;10495;50.922;4.760;2022-07-29T09:52:19;3.70;;;1.80;;
20671;SDS011;10495;50.922;4.760;2022-07-29T09:54:46;1.98;;;1.80;;
20671;SDS011;10495;50.922;4.760;2022-07-29T09:57:27;3.20;;;1.85;;
20671;SDS011;10495;50.922;4.760;2022-07-29T10:02:42;2.95;;;2.20;;
20671;SDS011;10495;50.922;4.760;2022-07-29T10:05:25;6.07;;;2.33;;
20671;SDS011;10495;50.922;4.760;2022-07-29T10:07:54;3.03;;;1.95;;
20671;SDS011;10495;50.922;4.760;2022-07-29T10:10:25;3.67;;;1.95;;
20671;SDS011;10495;50.922;4.760;2022-07-29T10:12:56;2.83;;;1.98;;
20671;SDS011;10495;50.922;4.760;2022-07-29T10:15:28;1.80;;;1.70;;
20671;SDS011;10495;50.922;4.760;2022-07-29T10:17:57;2.63;;;2.10;;
20671;SDS011;10495;50.922;4.760;2022-07-29T10:20:24;4.03;;;2.05;;
20671;SDS011;10495;50.922;4.760;2022-07-29T10:22:50;3.30;;;1.90;;
20671;SDS011;10495;50.922;4.760;2022-07-29T10:25:17;2.17;;;1.98;;
20671;SDS011;10495;50.922;4.760;2022-07-29T10:27:46;2.30;;;1.85;;
20671;SDS011;10495;50.922;4.760;2022-07-29T10:30:14;3.58;;;2.40;;
20671;SDS011;10495;50.922;4.760;2022-07-29T10:33:05;3.38;;;2.30;;
20671;SDS011;10495;50.922;4.760;2022-07-29T10:35:44;4.43;;;2.15;;
20671;SDS011;10495;50.922;4.760;2022-07-29T10:44:15;3.08;;;1.88;;
20671;SDS011;10495;50.922;4.760;2022-07-29T10:46:43;3.95;;;2.45;;
20671;SDS011;10495;50.922;4.760;2022-07-29T10:51:51;2.83;;;2.28;;
20671;SDS011;10495;50.922;4.760;2022-07-29T10:59:41;3.17;;;2.85;;
20671;SDS011;10495;50.922;4.760;2022-07-29T11:02:41;3.40;;;2.33;;
20671;SDS011;10495;50.922;4.760;2022-07-29T11:05:05;3.83;;;2.70;;
20671;SDS011;10495;50.922;4.760;2022-07-29T11:07:33;4.90;;;3.03;;
20671;SDS011;10495;50.922;4.760;2022-07-29T11:20:30;2.33;;;2.05;;
20671;SDS011;10495;50.922;4.760;2022-07-29T11:22:59;5.25;;;2.78;;
20671;SDS011;10495;50.922;4.760;2022-07-29T11:25:25;6.68;;;3.00;;
20671;SDS011;10495;50.922;4.760;2022-07-29T11:27:52;4.25;;;2.92;;
20671;SDS011;10495;50.922;4.760;2022-07-29T11:30:19;3.08;;;2.60;;
20671;SDS011;10495;50.922;4.760;2022-07-29T11:32:45;2.65;;;2.33;;
20671;SDS011;10495;50.922;4.760;2022-07-29T11:37:45;5.80;;;2.55;;
20671;SDS011;10495;50.922;4.760;2022-07-29T11:40:12;3.65;;;2.40;;
20671;SDS011;10495;50.922;4.760;2022-07-29T11:42:39;5.70;;;2.38;;
20671;SDS011;10495;50.922;4.760;2022-07-29T11:47:46;2.60;;;2.40;;
20671;SDS011;10495;50.922;4.760;2022-07-29T11:50:16;2.88;;;2.60;;
20671;SDS011;10495;50.922;4.760;2022-07-29T11:52:57;2.72;;;2.00;;
20671;SDS011;10495;50.922;4.760;2022-07-29T11:55:24;3.80;;;2.30;;
20671;SDS011;10495;50.922;4.760;2022-07-29T11:57:51;4.22;;;2.22;;
20671;SDS011;10495;50.922;4.760;2022-07-29T12:00:22;5.35;;;2.33;;
20671;SDS011;10495;50.922;4.760;2022-07-29T12:02:56;3.65;;;2.15;;
20671;SDS011;10495;50.922;4.760;2022-07-29T12:05:30;2.95;;;2.53;;
20671;SDS011;10495;50.922;4.760;2022-07-29T12:08:03;3.08;;;2.15;;
20671;SDS011;10495;50.922;4.760;2022-07-29T12:10:30;5.10;;;2.88;;
20671;SDS011;10495;50.922;4.760;2022-07-29T12:12:56;3.85;;;2.45;;
20671;SDS011;10495;50.922;4.760;2022-07-29T12:15:22;4.53;;;2.70;;
20671;SDS011;10495;50.922;4.760;2022-07-29T12:17:49;4.05;;;2.10;;
20671;SDS011;10495;50.922;4.760;2022-07-29T12:20:21;5.75;;;2.88;;
20671;SDS011;10495;50.922;4.760;2022-07-29T12:22:48;3.28;;;2.30;;
20671;SDS011;10495;50.922;4.760;2022-07-29T12:25:14;2.97;;;2.28;;
20671;SDS011;10495;50.922;4.760;2022-07-29T12:27:43;2.90;;;2.30;;
20671;SDS011;10495;50.922;4.760;2022-07-29T12:30:10;2.95;;;1.95;;
20671;SDS011;10495;50.922;4.760;2022-07-29T12:32:43;4.50;;;2.38;;
20671;SDS011;10495;50.922;4.760;2022-07-29T12:35:16;2.97;;;2.08;;
20671;SDS011;10495;50.922;4.760;2022-07-29T12:37:47;3.92;;;2.50;;
20671;SDS011;10495;50.922;4.760;2022-07-29T12:40:14;3.90;;;2.67;;
20671;SDS011;10495;50.922;4.760;2022-07-29T12:42:41;3.67;;;2.33;;
20671;SDS011;10495;50.922;4.760;2022-07-29T12:45:31;6.70;;;2.47;;
20671;SDS011;10495;50.922;4.760;2022-07-29T12:47:57;3.53;;;2.30;;
20671;SDS011;10495;50.922;4.760;2022-07-29T12:50:22;4.15;;;2.10;;
20671;SDS011;10495;50.922;4.760;2022-07-29T12:52:48;5.53;;;3.50;;
20671;SDS011;10495;50.922;4.760;2022-07-29T12:55:14;8.82;;;3.25;;
20671;SDS011;10495;50.922;4.760;2022-07-29T12:57:50;2.70;;;2.50;;
20671;SDS011;10495;50.922;4.760;2022-07-29T13:00:21;3.95;;;2.33;;
20671;SDS011;10495;50.922;4.760;2022-07-29T13:02:54;2.55;;;2.22;;
20671;SDS011;10495;50.922;4.760;2022-07-29T13:05:22;4.18;;;2.38;;
20671;SDS011;10495;50.922;4.760;2022-07-29T13:07:47;4.57;;;2.15;;
20671;SDS011;10495;50.922;4.760;2022-07-29T13:10:15;5.78;;;2.10;;
20671;SDS011;10495;50.922;4.760;2022-07-29T13:16:04;4.07;;;2.30;;
20671;SDS011;10495;50.922;4.760;2022-07-29T13:18:33;6.80;;;2.08;;
20671;SDS011;10495;50.922;4.760;2022-07-29T13:21:12;4.85;;;2.00;;
20671;SDS011;10495;50.922;4.760;2022-07-29T13:23:41;3.28;;;2.28;;
20671;SDS011;10495;50.922;4.760;2022-07-29T13:26:08;6.15;;;2.20;;
20671;SDS011;10495;50.922;4.760;2022-07-29T13:28:34;3.28;;;2.22;;
20671;SDS011;10495;50.922;4.760;2022-07-29T13:31:00;5.60;;;2.33;;
20671;SDS011;10495;50.922;4.760;2022-07-29T13:33:26;7.38;;;2.70;;
20671;SDS011;10495;50.922;4.760;2022-07-29T13:35:52;2.25;;;2.03;;
20671;SDS011;10495;50.922;4.760;2022-07-29T13:38:18;2.53;;;1.80;;
20671;SDS011;10495;50.922;4.760;2022-07-29T13:40:43;3.28;;;2.33;;
20671;SDS011;10495;50.922;4.760;2022-07-29T13:43:09;6.47;;;2.47;;
20671;SDS011;10495;50.922;4.760;2022-07-29T13:45:35;4.40;;;2.40;;
20671;SDS011;10495;50.922;4.760;2022-07-29T13:48:01;4.78;;;2.80;;
20671;SDS011;10495;50.922;4.760;2022-07-29T13:50:27;3.92;;;2.40;;
20671;SDS011;10495;50.922;4.760;2022-07-29T13:52:52;3.92;;;2.58;;
20671;SDS011;10495;50.922;4.760;2022-07-29T13:55:18;5.13;;;2.30;;
20671;SDS011;10495;50.922;4.760;2022-07-29T13:57:44;3.95;;;2.28;;
20671;SDS011;10495;50.922;4.760;2022-07-29T14:00:10;3.40;;;2.20;;
20671;SDS011;10495;50.922;4.760;2022-07-29T14:02:36;4.03;;;2.85;;
20671;SDS011;10495;50.922;4.760;2022-07-29T14:05:03;3.22;;;2.30;;
20671;SDS011;10495;50.922;4.760;2022-07-29T14:07:30;2.20;;;2.00;;
20671;SDS011;10495;50.922;4.760;2022-07-29T14:09:55;4.32;;;2.47;;
20671;SDS011;10495;50.922;4.760;2022-07-29T14:12:21;4.88;;;2.40;;
20671;SDS011;10495;50.922;4.760;2022-07-29T14:14:47;2.75;;;2.47;;
20671;SDS011;10495;50.922;4.760;2022-07-29T14:17:13;3.33;;;2.97;;
20671;SDS011;10495;50.922;4.760;2022-07-29T14:19:39;4.40;;;2.20;;
20671;SDS011;10495;50.922;4.760;2022-07-29T14:22:06;3.85;;;2.58;;
20671;SDS011;10495;50.922;4.760;2022-07-29T14:24:33;4.03;;;2.53;;
20671;SDS011;10495;50.922;4.760;2022-07-29T14:26:59;3.20;;;2.47;;
20671;SDS011;10495;50.922;4.760;2022-07-29T14:29:25;4.22;;;2.42;;
20671;SDS011;10495;50.922;4.760;2022-07-29T14:31:50;3.00;;;2.55;;
20671;SDS011;10495;50.922;4.760;2022-07-29T14:34:16;3.42;;;2.65;;
20671;SDS011;10495;50.922;4.760;2022-07-29T14:36:42;6.50;;;2.92;;
20671;SDS011;10495;50.922;4.760;2022-07-29T14:39:07;3.58;;;2.47;;
20671;SDS011;10495;50.922;4.760;2022-07-29T14:41:33;4.75;;;2.92;;
20671;SDS011;10495;50.922;4.760;2022-07-29T14:43:59;6.28;;;3.40;;
20671;SDS011;10495;50.922;4.760;2022-07-29T14:46:26;6.95;;;3.38;;
20671;SDS011;10495;50.922;4.760;2022-07-29T14:48:52;9.85;;;3.72;;
20671;SDS011;10495;50.922;4.760;2022-07-29T14:51:17;7.88;;;3.70;;
20671;SDS011;10495;50.922;4.760;2022-07-29T14:53:43;4.68;;;3.25;;
20671;SDS011;10495;50.922;4.760;2022-07-29T14:56:09;5.22;;;4.15;;
20671;SDS011;10495;50.922;4.760;2022-07-29T14:58:34;5.40;;;3.25;;
20671;SDS011;10495;50.922;4.760;2022-07-29T15:01:00;4.30;;;3.15;;
20671;SDS011;10495;50.922;4.760;2022-07-29T15:03:26;4.93;;;3.22;;
20671;SDS011;10495;50.922;4.760;2022-07-29T15:05:53;4.55;;;3.10;;
20671;SDS011;10495;50.922;4.760;2022-07-29T15:08:18;3.80;;;3.38;;
20671;SDS011;10495;50.922;4.760;2022-07-29T15:10:44;4.88;;;2.95;;
20671;SDS011;10495;50.922;4.760;2022-07-29T15:13:10;5.22;;;3.15;;
20671;SDS011;10495;50.922;4.760;2022-07-29T15:15:36;7.88;;;3.92;;
20671;SDS011;10495;50.922;4.760;2022-07-29T15:18:03;7.22;;;2.92;;
20671;SDS011;10495;50.922;4.760;2022-07-29T15:20:29;3.38;;;3.08;;
20671;SDS011;10495;50.922;4.760;2022-07-29T15:22:55;6.18;;;3.33;;
20671;SDS011;10495;50.922;4.760;2022-07-29T15:25:22;5.72;;;3.97;;
20671;SDS011;10495;50.922;4.760;2022-07-29T15:27:48;5.53;;;3.63;;
20671;SDS011;10495;50.922;4.760;2022-07-29T15:30:13;9.43;;;3.95;;
20671;SDS011;10495;50.922;4.760;2022-07-29T15:32:42;8.50;;;3.67;;
20671;SDS011;10495;50.922;4.760;2022-07-29T15:35:08;10.52;;;3.72;;
20671;SDS011;10495;50.922;4.760;2022-07-29T15:37:35;6.60;;;3.63;;
20671;SDS011;10495;50.922;4.760;2022-07-29T15:40:02;5.97;;;3.20;;
20671;SDS011;10495;50.922;4.760;2022-07-29T15:42:28;5.85;;;3.22;;
20671;SDS011;10495;50.922;4.760;2022-07-29T15:44:54;3.30;;;2.88;;
20671;SDS011;10495;50.922;4.760;2022-07-29T15:47:20;4.10;;;2.60;;